createdAt,value
2022-09-27T00:01:52.931Z,96021.28
2022-09-27T00:04:19.333Z,96016.94
2022-09-27T00:06:45.678Z,96019.72
2022-09-27T00:09:12.057Z,96022.06
2022-09-27T00:11:39.337Z,96014.97
2022-09-27T00:14:05.887Z,96016.94
2022-09-27T00:16:33.373Z,96018.84
2022-09-27T00:19:00.248Z,96018.09
2022-09-27T00:21:26.627Z,96013.38
2022-09-27T00:23:52.998Z,96005.47
2022-09-27T00:26:19.303Z,96006.25
2022-09-27T00:28:45.630Z,96004.66
2022-09-27T00:31:29.708Z,95998.34
2022-09-27T00:33:56.776Z,96006.19
2022-09-27T00:36:23.528Z,96003.03
2022-09-27T00:38:50.079Z,95996.34
2022-09-27T00:41:17.398Z,95999.09
2022-09-27T00:43:46.821Z,95993.59
2022-09-27T00:46:13.437Z,95999.16
2022-09-27T00:48:39.793Z,95997.56
2022-09-27T00:51:06.131Z,95997.94
2022-09-27T00:53:33.926Z,96001.09
2022-09-27T00:56:04.732Z,95991.22
2022-09-27T00:58:32.013Z,95991.19
2022-09-27T01:00:59.578Z,95999.09
2022-09-27T01:03:46.199Z,95983.28
2022-09-27T01:06:12.523Z,95994.78
2022-09-27T01:08:39.327Z,95997.50
2022-09-27T01:11:05.603Z,95995.53
2022-09-27T01:13:36.043Z,95992.78
2022-09-27T01:16:05.441Z,96005.03
2022-09-27T01:18:48.514Z,96008.56
2022-09-27T01:21:23.458Z,96003.44
2022-09-27T01:24:02.556Z,96003.09
2022-09-27T01:26:31.903Z,96008.59
2022-09-27T01:29:07.149Z,96000.31
2022-09-27T01:31:52.444Z,95990.03
2022-09-27T01:34:22.352Z,95992.41
2022-09-27T01:36:54.399Z,95992.41
2022-09-27T01:39:44.945Z,95985.69
2022-09-27T01:42:13.416Z,95989.25
2022-09-27T01:44:45.969Z,95987.28
2022-09-27T01:47:17.153Z,95984.91
2022-09-27T01:50:03.735Z,95977.34
2022-09-27T01:52:31.956Z,95977.00
2022-09-27T01:54:58.765Z,95978.56
2022-09-27T01:57:25.589Z,95968.25
2022-09-27T02:00:10.715Z,95975.41
2022-09-27T02:02:39.023Z,95965.94
2022-09-27T02:05:05.648Z,95964.28
2022-09-27T02:07:37.665Z,95961.56
2022-09-27T02:10:05.754Z,95969.47
2022-09-27T02:12:33.269Z,95970.28
2022-09-27T02:15:04.185Z,95971.06
2022-09-27T02:17:32.467Z,95967.91
2022-09-27T02:20:05.232Z,95968.69
2022-09-27T02:22:31.542Z,95969.03
2022-09-27T02:25:03.424Z,95968.28
2022-09-27T02:27:37.759Z,95967.16
2022-09-27T02:30:06.111Z,95968.31
2022-09-27T02:32:32.597Z,95968.31
2022-09-27T02:34:59.524Z,95971.47
2022-09-27T02:37:25.853Z,95970.28
2022-09-27T02:39:52.510Z,95972.25
2022-09-27T02:42:19.383Z,95970.97
2022-09-27T02:44:45.743Z,95966.66
2022-09-27T02:47:12.744Z,95968.69
2022-09-27T02:49:39.081Z,95971.06
2022-09-27T02:52:06.936Z,95970.22
2022-09-27T02:54:35.952Z,95978.13
2022-09-27T02:57:13.427Z,95968.28
2022-09-27T02:59:58.737Z,95977.38
2022-09-27T03:02:32.339Z,95971.06
2022-09-27T03:05:05.759Z,95978.97
2022-09-27T03:07:32.092Z,95976.22
2022-09-27T03:09:58.418Z,95971.88
2022-09-27T03:12:27.927Z,95978.97
2022-09-27T03:14:55.652Z,95980.94
2022-09-27T03:17:22.713Z,95978.19
2022-09-27T03:19:49.093Z,95973.03
2022-09-27T03:22:15.440Z,95985.69
2022-09-27T03:24:41.789Z,95990.84
2022-09-27T03:27:08.204Z,95993.25
2022-09-27T03:29:34.523Z,95984.97
2022-09-27T03:32:00.874Z,95988.91
2022-09-27T03:34:27.239Z,95990.88
2022-09-27T03:36:53.566Z,95989.69
2022-09-27T03:39:20.055Z,95987.34
2022-09-27T03:41:47.144Z,95996.41
2022-09-27T03:44:13.464Z,95995.63
2022-09-27T03:46:39.837Z,95990.09
2022-09-27T03:49:06.184Z,95994.84
2022-09-27T03:51:32.501Z,96002.75
2022-09-27T03:53:58.895Z,95999.19
2022-09-27T03:56:25.270Z,96001.22
2022-09-27T03:58:51.593Z,96003.94
2022-09-27T04:01:17.984Z,96007.50
2022-09-27T04:03:45.306Z,96000.00
2022-09-27T04:06:11.623Z,96000.00
2022-09-27T04:08:37.964Z,95998.81
2022-09-27T04:11:04.286Z,96002.75
2022-09-27T04:13:30.644Z,96000.00
2022-09-27T04:15:56.956Z,95997.66
2022-09-27T04:18:23.285Z,95987.78
2022-09-27T04:20:49.595Z,95990.53
2022-09-27T04:23:15.922Z,95998.44
2022-09-27T04:25:42.243Z,96004.75
2022-09-27T04:28:08.564Z,95999.19
2022-09-27T04:30:34.967Z,96004.72
2022-09-27T04:33:01.384Z,96010.25
2022-09-27T04:35:46.560Z,96001.97
2022-09-27T04:38:14.309Z,95997.22
2022-09-27T04:40:41.149Z,95997.22
2022-09-27T04:43:07.548Z,96000.78
2022-09-27T04:45:33.935Z,96006.72
2022-09-27T04:48:00.350Z,95999.22
2022-09-27T04:50:26.671Z,96009.09
2022-09-27T04:52:53.503Z,96011.88
2022-09-27T04:55:20.544Z,96008.31
2022-09-27T04:57:47.476Z,96005.94
2022-09-27T05:00:13.996Z,96005.56
2022-09-27T05:02:40.363Z,96012.66
2022-09-27T05:05:06.800Z,96011.88
2022-09-27T05:07:33.558Z,96013.47
2022-09-27T05:09:59.879Z,96017.00
2022-09-27T05:12:29.005Z,96018.19
2022-09-27T05:14:55.336Z,96028.47
2022-09-27T05:17:22.362Z,96029.28
2022-09-27T05:19:48.951Z,96040.34
2022-09-27T05:22:15.374Z,96039.13
2022-09-27T05:24:41.694Z,96045.50
2022-09-27T05:27:08.370Z,96051.38
2022-09-27T05:29:35.153Z,96052.97
2022-09-27T05:32:01.794Z,96050.63
2022-09-27T05:34:28.120Z,96045.09
2022-09-27T05:36:54.446Z,96052.97
2022-09-27T05:39:20.864Z,96049.03
2022-09-27T05:44:17.512Z,96057.34
2022-09-27T05:46:43.845Z,96063.25
2022-09-27T05:49:10.217Z,96068.00
2022-09-27T05:51:36.526Z,96059.31
2022-09-27T05:54:03.277Z,96063.25
2022-09-27T05:56:29.599Z,96053.38
2022-09-27T05:58:55.917Z,96061.66
2022-09-27T06:01:22.271Z,96063.66
2022-09-27T06:03:48.610Z,96067.59
2022-09-27T06:06:15.493Z,96070.38
2022-09-27T06:08:41.830Z,96073.94
2022-09-27T06:11:09.006Z,96070.75
2022-09-27T06:13:36.326Z,96080.66
2022-09-27T06:16:03.121Z,96091.66
2022-09-27T06:18:29.475Z,96083.00
2022-09-27T06:20:56.019Z,96088.53
2022-09-27T06:23:22.720Z,96094.81
2022-09-27T06:25:49.295Z,96086.94
2022-09-27T06:28:15.827Z,96088.91
2022-09-27T06:30:43.105Z,96088.91
2022-09-27T06:33:09.776Z,96096.03
2022-09-27T06:35:36.254Z,96095.63
2022-09-27T06:38:03.421Z,96101.56
2022-09-27T06:40:30.049Z,96108.28
2022-09-27T06:43:02.157Z,96116.59
2022-09-27T06:45:28.602Z,96112.63
2022-09-27T06:47:56.121Z,96122.91
2022-09-27T06:50:22.440Z,96114.59
2022-09-27T06:52:48.880Z,96116.19
2022-09-27T06:55:15.418Z,96119.72
2022-09-27T06:58:00.563Z,96129.63
2022-09-27T07:00:27.042Z,96135.16
2022-09-27T07:02:53.650Z,96121.72
2022-09-27T07:05:20.196Z,96130.44
2022-09-27T07:07:49.088Z,96131.59
2022-09-27T07:10:18.152Z,96127.28
2022-09-27T07:12:47.511Z,96149.41
2022-09-27T07:15:13.839Z,96145.84
2022-09-27T07:17:40.190Z,96147.44
2022-09-27T07:20:06.699Z,96148.59
2022-09-27T07:22:33.056Z,96149.41
2022-09-27T07:24:59.383Z,96162.84
2022-09-27T07:27:26.610Z,96161.28
2022-09-27T07:29:52.987Z,96166.78
2022-09-27T07:32:19.381Z,96167.59
2022-09-27T07:34:45.694Z,96167.56
2022-09-27T07:37:12.660Z,96174.69
2022-09-27T07:39:39.048Z,96169.19
2022-09-27T07:42:06.214Z,96173.91
2022-09-27T07:44:32.730Z,96177.06
2022-09-27T07:46:59.045Z,96177.88
2022-09-27T07:49:25.369Z,96180.25
2022-09-27T07:51:51.692Z,96185.00
2022-09-27T07:54:18.013Z,96194.06
2022-09-27T07:56:45.114Z,96200.41
2022-09-27T07:59:11.870Z,96201.59
2022-09-27T08:01:38.230Z,96203.56
2022-09-27T08:04:05.569Z,96202.38
2022-09-27T08:06:31.930Z,96206.72
2022-09-27T08:08:59.724Z,96210.69
2022-09-27T08:11:27.096Z,96206.72
2022-09-27T08:13:53.532Z,96208.28
2022-09-27T08:16:20.015Z,96212.66
2022-09-27T08:18:46.380Z,96209.88
2022-09-27T08:21:12.704Z,96216.59
2022-09-27T08:23:39.055Z,96219.38
2022-09-27T08:26:05.475Z,96230.03
2022-09-27T08:28:31.926Z,96226.91
2022-09-27T08:30:59.283Z,96228.47
2022-09-27T08:33:32.039Z,96226.09
2022-09-27T08:35:59.358Z,96234.41
2022-09-27T08:38:25.680Z,96234.81
2022-09-27T08:40:52.327Z,96239.56
2022-09-27T08:43:20.830Z,96231.63
2022-09-27T08:46:07.417Z,96241.91
2022-09-27T08:48:33.761Z,96244.66
2022-09-27T08:51:00.568Z,96237.53
2022-09-27T08:53:28.103Z,96247.84
2022-09-27T08:55:57.480Z,96252.19
2022-09-27T08:58:23.760Z,96247.88
2022-09-27T09:00:51.887Z,96254.19
2022-09-27T09:03:19.068Z,96244.28
2022-09-27T09:05:48.435Z,96256.56
2022-09-27T09:08:27.540Z,96259.69
2022-09-27T09:11:26.400Z,96254.59
2022-09-27T09:14:13.686Z,96262.91
2022-09-27T09:17:00.709Z,96258.53
2022-09-27T09:19:33.114Z,96254.13
2022-09-27T09:22:08.498Z,96257.69
2022-09-27T09:24:43.847Z,96260.44
2022-09-27T09:27:13.512Z,96265.16
2022-09-27T09:29:39.795Z,96266.38
2022-09-27T09:32:06.148Z,96260.41
2022-09-27T09:34:35.577Z,96253.28
2022-09-27T09:37:11.575Z,96256.84
2022-09-27T09:39:48.690Z,96258.72
2022-09-27T09:42:24.441Z,96248.84
2022-09-27T09:44:54.213Z,96254.72
2022-09-27T09:47:29.508Z,96252.53
2022-09-27T09:49:57.951Z,96249.31
2022-09-27T09:52:24.876Z,96257.66
2022-09-27T09:54:52.120Z,96255.25
2022-09-27T09:57:19.249Z,96253.31
2022-09-27T09:59:47.921Z,96252.94
2022-09-27T10:02:17.734Z,96259.91
2022-09-27T10:04:44.280Z,96253.66
2022-09-27T10:07:10.600Z,96247.78
2022-09-27T10:09:37.235Z,96244.47
2022-09-27T10:12:03.629Z,96237.00
2022-09-27T10:14:29.960Z,96233.50
2022-09-27T10:16:59.948Z,96247.16
2022-09-27T10:19:30.325Z,96239.94
2022-09-27T10:22:26.140Z,96235.88
2022-09-27T10:24:54.010Z,96245.00
2022-09-27T10:27:20.320Z,96240.03
2022-09-27T10:29:46.698Z,96244.50
2022-09-27T10:32:21.092Z,96241.00
2022-09-27T10:34:47.426Z,96249.34
2022-09-27T10:37:17.995Z,96246.53
2022-09-27T10:39:45.319Z,96247.31
2022-09-27T10:42:30.595Z,96248.16
2022-09-27T10:44:56.967Z,96254.06
2022-09-27T10:47:23.575Z,96247.72
2022-09-27T10:49:52.605Z,96255.25
2022-09-27T10:52:19.672Z,96246.13
2022-09-27T10:54:52.940Z,96254.44
2022-09-27T10:57:38.961Z,96256.78
2022-09-27T11:00:22.904Z,96254.13
2022-09-27T11:02:53.131Z,96263.94
2022-09-27T11:05:29.710Z,96262.06
2022-09-27T11:07:59.687Z,96267.38
2022-09-27T11:10:37.170Z,96270.16
2022-09-27T11:13:22.495Z,96265.41
2022-09-27T11:16:01.174Z,96275.31
2022-09-27T11:18:27.496Z,96273.75
2022-09-27T11:20:58.442Z,96272.53
2022-09-27T11:23:26.119Z,96274.94
2022-09-27T11:26:14.692Z,96277.19
2022-09-27T11:28:50.701Z,96270.44
2022-09-27T11:31:35.800Z,96287.28
2022-09-27T11:34:21.947Z,96292.97
2022-09-27T11:36:51.310Z,96299.81
2022-09-27T11:39:26.094Z,96303.97
2022-09-27T11:42:03.512Z,96300.84
2022-09-27T11:44:42.847Z,96297.28
2022-09-27T11:47:21.956Z,96294.09
2022-09-27T11:50:07.470Z,96288.56
2022-09-27T11:52:43.694Z,96294.53
2022-09-27T11:55:15.842Z,96297.25
2022-09-27T11:57:43.672Z,96298.03
2022-09-27T12:00:10.467Z,96302.81
2022-09-27T12:02:49.015Z,96294.06
2022-09-27T12:05:15.315Z,96298.44
2022-09-27T12:07:46.064Z,96288.13
2022-09-27T12:10:13.841Z,96286.19
2022-09-27T12:12:41.285Z,96285.03
2022-09-27T12:15:13.685Z,96292.53
2022-09-27T12:17:42.845Z,96285.44
2022-09-27T12:20:24.563Z,96288.59
2022-09-27T12:22:59.225Z,96278.91
2022-09-27T12:25:27.257Z,96273.25
2022-09-27T12:27:58.194Z,96281.84
2022-09-27T12:30:24.499Z,96278.75
2022-09-27T12:32:54.994Z,96269.38
2022-09-27T12:35:22.077Z,96268.25
2022-09-27T12:38:07.411Z,96290.16
2022-09-27T12:40:38.794Z,96282.19
2022-09-27T12:43:17.707Z,96281.84
2022-09-27T12:46:02.544Z,96281.41
2022-09-27T12:48:35.968Z,96275.91
2022-09-27T12:51:12.100Z,96289.75
2022-09-27T12:53:47.680Z,96277.53
2022-09-27T12:56:19.911Z,96275.09
2022-09-27T12:58:49.309Z,96282.13
2022-09-27T13:01:39.904Z,96275.69
2022-09-27T13:04:25.082Z,96285.13
2022-09-27T13:07:07.602Z,96287.53
2022-09-27T13:09:41.178Z,96278.94
2022-09-27T13:12:14.188Z,96274.13
2022-09-27T13:14:42.890Z,96269.69
2022-09-27T13:17:31.176Z,96276.47
2022-09-27T13:19:58.031Z,96273.31
2022-09-27T13:22:27.365Z,96275.72
2022-09-27T13:24:53.998Z,96278.88
2022-09-27T13:27:26.207Z,96279.34
2022-09-27T13:29:52.525Z,96283.78
2022-09-27T13:32:19.862Z,96294.47
2022-09-27T13:34:46.231Z,96295.59
2022-09-27T13:37:32.161Z,96292.00
2022-09-27T13:40:15.684Z,96288.41
2022-09-27T13:43:05.083Z,96288.38
2022-09-27T13:45:50.187Z,96294.63
2022-09-27T13:48:17.470Z,96296.94
2022-09-27T13:50:43.714Z,96295.72
2022-09-27T13:53:25.195Z,96296.28
2022-09-27T13:55:54.572Z,96295.97
2022-09-27T13:58:23.835Z,96294.03
2022-09-27T14:00:55.026Z,96305.91
2022-09-27T14:03:31.174Z,96295.66
2022-09-27T14:05:57.806Z,96303.59
2022-09-27T14:08:27.107Z,96301.63
2022-09-27T14:10:53.443Z,96294.88
2022-09-27T14:13:22.727Z,96294.00
2022-09-27T14:15:50.205Z,96287.13
2022-09-27T14:18:16.705Z,96295.81
2022-09-27T14:20:43.441Z,96288.94
2022-09-27T14:23:17.069Z,96296.41
2022-09-27T14:25:48.020Z,96283.69
2022-09-27T14:28:20.101Z,96285.63
2022-09-27T14:30:47.722Z,96286.00
2022-09-27T14:33:27.296Z,96291.47
2022-09-27T14:36:12.403Z,96290.66
2022-09-27T14:38:39.455Z,96294.72
2022-09-27T14:41:07.456Z,96305.03
2022-09-27T14:43:34.153Z,96298.31
2022-09-27T14:46:01.300Z,96311.50
2022-09-27T14:48:28.758Z,96311.91
2022-09-27T14:51:06.140Z,96310.72
2022-09-27T14:53:35.111Z,96323.38
2022-09-27T14:56:01.745Z,96321.84
2022-09-27T14:58:46.628Z,96319.88
2022-09-27T15:01:15.219Z,96315.53
2022-09-27T15:03:44.569Z,96318.66
2022-09-27T15:06:11.176Z,96319.47
2022-09-27T15:08:37.547Z,96316.31
2022-09-27T15:11:05.315Z,96317.50
2022-09-27T15:13:31.697Z,96322.63
2022-09-27T15:15:58.698Z,96309.56
2022-09-27T15:18:32.561Z,96308.78
2022-09-27T15:20:58.866Z,96309.16
2022-09-27T15:23:26.285Z,96314.28
2022-09-27T15:26:01.071Z,96315.47
2022-09-27T15:28:28.183Z,96316.19
2022-09-27T15:30:57.665Z,96310.28
2022-09-27T15:33:27.492Z,96320.59
2022-09-27T15:35:54.474Z,96323.38
2022-09-27T15:38:31.870Z,96308.34
2022-09-27T15:40:59.272Z,96315.50
2022-09-27T15:43:32.918Z,96317.09
2022-09-27T15:46:02.106Z,96314.31
2022-09-27T15:48:28.799Z,96323.41
2022-09-27T15:50:55.178Z,96328.16
2022-09-27T15:53:36.816Z,96321.06
2022-09-27T15:56:03.380Z,96326.19
2022-09-27T15:58:29.738Z,96334.09
2022-09-27T16:00:56.941Z,96343.56
2022-09-27T16:03:23.863Z,96343.16
2022-09-27T16:05:50.227Z,96336.84
2022-09-27T16:08:16.588Z,96339.16
2022-09-27T16:10:44.148Z,96340.34
2022-09-27T16:13:10.575Z,96352.28
2022-09-27T16:15:36.925Z,96360.94
2022-09-27T16:18:03.388Z,96365.66
2022-09-27T16:20:29.938Z,96360.44
2022-09-27T16:22:56.985Z,96362.78
2022-09-27T16:25:23.481Z,96367.53
2022-09-27T16:27:49.850Z,96371.84
2022-09-27T16:30:16.464Z,96366.28
2022-09-27T16:32:43.280Z,96362.69
2022-09-27T16:35:09.866Z,96352.03
2022-09-27T16:37:36.186Z,96357.16
2022-09-27T16:40:03.047Z,96357.16
2022-09-27T16:42:29.403Z,96360.72
2022-09-27T16:44:56.065Z,96350.44
2022-09-27T16:47:22.404Z,96356.00
2022-09-27T16:50:07.520Z,96351.69
2022-09-27T16:52:34.090Z,96347.72
2022-09-27T16:55:00.412Z,96355.94
2022-09-27T16:57:29.903Z,96362.28
2022-09-27T16:59:57.308Z,96361.44
2022-09-27T17:02:24.511Z,96358.22
2022-09-27T17:04:55.128Z,96363.81
2022-09-27T17:07:21.661Z,96365.44
2022-09-27T17:09:47.957Z,96363.81
2022-09-27T17:12:14.603Z,96362.59
2022-09-27T17:14:40.914Z,96364.22
2022-09-27T17:17:07.396Z,96364.16
2022-09-27T17:19:33.841Z,96357.84
2022-09-27T17:22:00.217Z,96361.84
2022-09-27T17:24:26.535Z,96360.69
2022-09-27T17:26:52.838Z,96359.50
2022-09-27T17:29:19.404Z,96354.81
2022-09-27T17:31:46.263Z,96364.28
2022-09-27T17:34:12.864Z,96360.69
2022-09-27T17:36:41.663Z,96362.69
2022-09-27T17:39:09.254Z,96372.94
2022-09-27T17:41:39.944Z,96371.34
2022-09-27T17:44:07.267Z,96369.38
2022-09-27T17:46:34.368Z,96365.06
2022-09-27T17:49:19.424Z,96367.78
2022-09-27T17:51:46.386Z,96374.47
2022-09-27T17:54:12.834Z,96378.09
2022-09-27T17:56:39.358Z,96373.66
2022-09-27T17:59:05.888Z,96372.09
2022-09-27T18:01:32.302Z,96376.44
2022-09-27T18:03:59.366Z,96371.31
2022-09-27T18:06:25.932Z,96380.03
2022-09-27T18:08:52.977Z,96376.09
2022-09-27T18:11:25.227Z,96370.09
2022-09-27T18:13:51.559Z,96375.56
2022-09-27T18:16:18.187Z,96379.16
2022-09-27T18:18:48.033Z,96377.06
2022-09-27T18:21:15.654Z,96378.63
2022-09-27T18:23:42.883Z,96374.25
2022-09-27T18:26:09.382Z,96372.28
2022-09-27T18:28:36.149Z,96388.84
2022-09-27T18:31:03.946Z,96378.88
2022-09-27T18:33:30.730Z,96385.47
2022-09-27T18:36:01.010Z,96386.69
2022-09-27T18:38:27.342Z,96389.75
2022-09-27T18:40:57.531Z,96387.13
2022-09-27T18:43:24.946Z,96375.75
2022-09-27T18:45:51.346Z,96384.31
2022-09-27T18:48:17.659Z,96392.59
2022-09-27T18:50:45.003Z,96385.94
2022-09-27T18:53:11.372Z,96391.47
2022-09-27T18:55:38.488Z,96391.44
2022-09-27T18:58:04.796Z,96382.44
2022-09-27T19:00:31.259Z,96386.00
2022-09-27T19:02:57.652Z,96389.50
2022-09-27T19:05:23.959Z,96383.66
2022-09-27T19:07:50.415Z,96389.22
2022-09-27T19:10:16.735Z,96393.19
2022-09-27T19:12:43.156Z,96380.13
2022-09-27T19:15:09.694Z,96376.75
2022-09-27T19:17:36.029Z,96389.28
2022-09-27T19:20:02.420Z,96387.25
2022-09-27T19:22:28.960Z,96383.84
2022-09-27T19:24:55.284Z,96391.69
2022-09-27T19:27:21.704Z,96389.59
2022-09-27T19:29:48.017Z,96395.53
2022-09-27T19:32:14.341Z,96390.38
2022-09-27T19:34:40.749Z,96392.78
2022-09-27T19:37:07.085Z,96387.63
2022-09-27T19:39:33.385Z,96386.47
2022-09-27T19:41:59.702Z,96389.56
2022-09-27T19:44:26.774Z,96380.84
2022-09-27T19:46:53.177Z,96377.28
2022-09-27T19:49:19.510Z,96377.34
2022-09-27T19:51:45.858Z,96380.13
2022-09-27T19:54:12.795Z,96385.06
2022-09-27T19:56:39.236Z,96382.28
2022-09-27T19:59:07.375Z,96387.06
2022-09-27T20:01:33.970Z,96399.63
2022-09-27T20:04:00.334Z,96390.50
2022-09-27T20:06:26.899Z,96388.59
2022-09-27T20:08:53.207Z,96384.28
2022-09-27T20:11:20.119Z,96392.47
2022-09-27T20:13:46.608Z,96395.59
2022-09-27T20:16:16.797Z,96394.66
2022-09-27T20:18:44.211Z,96385.50
2022-09-27T20:21:10.583Z,96391.44
2022-09-27T20:23:36.995Z,96387.25
2022-09-27T20:26:04.425Z,96383.28
2022-09-27T20:28:30.760Z,96388.28
2022-09-27T20:30:57.701Z,96387.88
2022-09-27T20:33:42.419Z,96397.13
2022-09-27T20:36:12.478Z,96391.59
2022-09-27T20:38:39.998Z,96388.03
2022-09-27T20:41:06.341Z,96384.78
2022-09-27T20:43:32.671Z,96381.94
2022-09-27T20:46:02.861Z,96384.50
2022-09-27T20:48:30.968Z,96379.47
2022-09-27T20:51:00.296Z,96373.19
2022-09-27T20:53:30.141Z,96378.28
2022-09-27T20:55:56.842Z,96377.41
2022-09-27T20:58:23.215Z,96379.28
2022-09-27T21:00:49.633Z,96375.63
2022-09-27T21:03:20.876Z,96378.22
2022-09-27T21:05:54.899Z,96376.25
2022-09-27T21:08:21.293Z,96369.88
2022-09-27T21:10:51.848Z,96374.56
2022-09-27T21:13:19.073Z,96371.75
2022-09-27T21:15:45.464Z,96381.38
2022-09-27T21:18:11.845Z,96372.56
2022-09-27T21:20:38.152Z,96370.63
2022-09-27T21:23:04.578Z,96360.19
2022-09-27T21:25:30.887Z,96377.97
2022-09-27T21:28:00.730Z,96363.00
2022-09-27T21:30:27.652Z,96361.38
2022-09-27T21:32:54.872Z,96361.84
2022-09-27T21:35:21.542Z,96360.38
2022-09-27T21:37:48.090Z,96356.78
2022-09-27T21:40:14.748Z,96357.56
2022-09-27T21:42:41.073Z,96357.50
2022-09-27T21:45:07.604Z,96359.38
2022-09-27T21:47:33.917Z,96362.06
2022-09-27T21:50:00.286Z,96362.00
2022-09-27T21:52:27.558Z,96355.72
2022-09-27T21:54:53.993Z,96355.28
2022-09-27T21:57:20.311Z,96363.44
2022-09-27T21:59:46.622Z,96353.16
2022-09-27T22:02:12.989Z,96348.91
2022-09-27T22:04:39.367Z,96349.94
2022-09-27T22:07:05.686Z,96349.53
2022-09-27T22:09:32.262Z,96350.94
2022-09-27T22:11:58.575Z,96347.88
2022-09-27T22:14:24.877Z,96348.19
2022-09-27T22:16:51.191Z,96341.88
2022-09-27T22:19:17.990Z,96340.03
2022-09-27T22:21:44.570Z,96341.63
2022-09-27T22:24:12.194Z,96344.88
2022-09-27T22:26:38.864Z,96340.53
2022-09-27T22:29:05.363Z,96333.41
2022-09-27T22:31:31.919Z,96329.94
2022-09-27T22:33:59.059Z,96337.16
2022-09-27T22:36:25.391Z,96331.63
2022-09-27T22:38:51.688Z,96328.03
2022-09-27T22:41:18.424Z,96327.66
2022-09-27T22:43:44.742Z,96321.66
2022-09-27T22:46:11.104Z,96328.94
2022-09-27T22:48:37.483Z,96316.31
2022-09-27T22:51:04.041Z,96313.19
2022-09-27T22:53:30.528Z,96311.19
2022-09-27T22:56:04.006Z,96304.06
2022-09-27T22:58:30.761Z,96294.31
2022-09-27T23:00:57.084Z,96297.28
2022-09-27T23:03:23.491Z,96300.78
2022-09-27T23:05:49.881Z,96293.03
2022-09-27T23:08:16.311Z,96292.94
2022-09-27T23:10:42.999Z,96285.94
2022-09-27T23:13:09.316Z,96281.28
2022-09-27T23:15:35.624Z,96278.63
2022-09-27T23:18:02.198Z,96277.38
2022-09-27T23:20:29.712Z,96273.53
2022-09-27T23:22:56.026Z,96281.50
2022-09-27T23:25:22.405Z,96266.94
2022-09-27T23:27:50.156Z,96271.31
2022-09-27T23:30:20.050Z,96264.19
2022-09-27T23:32:51.738Z,96265.78
2022-09-27T23:35:18.037Z,96258.31
2022-09-27T23:37:44.350Z,96259.22
2022-09-27T23:40:10.678Z,96250.44
2022-09-27T23:42:36.982Z,96257.56
2022-09-27T23:45:03.458Z,96253.25
2022-09-27T23:47:29.769Z,96260.81
2022-09-27T23:49:58.225Z,96257.25
2022-09-27T23:52:24.588Z,96265.16
2022-09-27T23:54:50.910Z,96254.97
2022-09-27T23:57:17.360Z,96249.78
2022-09-27T23:59:43.667Z,96247.06
